Timeline UpdatesTrip UpdatesNews PostsPvt PostsTravel TipsAdmin PostsConv PostsFollowed PostsChat RequestsBlog PostsPNR Posts

Disclaimer
Search
 
 
Thu Sep 18, 2014 07:07:39 ISTHomeTrainsΣChainsAtlasPNRForumGalleryNewsFAQTripsMembersLoginFeedback
No Recent News for this Train
Other Trains in the News **new
Latest...
.
Mon Jul 14, 2014 (10:12PM)
⇐ Return Journey: Train# 12820

12819/Orissa Sampark Kranti Express

Time-Table HAS CHANGED.
Sep 14 (9:34PM)
Change Departure Station:
Change Arrival Station:
Post a Train Travel TipPost a Train Travel Tip **new
Post a Comment/Question/Picture/VideoPost a Comment/Question/Picture/Video
Pantry/Catering
✓ Pantry Car Avbl
✓ Catering Avbl
RSA - Rake Sharing
Rake/Coach Composition
LOCO-SLR-GEN-GEN-A1-B1-B2-B3-PC-S1-S2-S3-S4-S5-S6-S7-S8-S9-S10-S11-GEN-GEN-SLR.
Loco
GZB WAP-4
News    PNR    Forum    Time-Table    Availability    Fare Chart    Map    Arr/Dep History    Trips    Gallery    ΣChains    X/O    Timeline    
Travel Time: 3h 2m    3 halts    Distance: 173 km    Avg Speed: 57 km/hr
Type: Sampark Kranti
Zone: ECoR/East Coast
Departs @ 15:30
Platform# 2
S  W   
Bhubaneswar/BBS 
Arrives @ 18:32
Platform# ???
S  W   
Soro/SORO 

3 halts. 32 intermediate Stations between Bhubaneswar and Soro

Hide intermediate Stations  Show Old Time-Table

#CodeStation NameX/OArrivesAvgDepartsAvgHaltPFDay#KmSpeedElevZoneAddress
1BBSBhubaneswar (4)»  -15:30-210.06440mECoRBhubaneshwar, Odisha
1.1BNBHBani Bihar (2)  15:33-15:33-  13.5 6438mECoRBhubaneswar, Odisha
1.2MCSMancheswar  15:36-15:36-  16.8 6427mECoRMancheswar, Odisha
1.3PTABPatia P.H.  15:39-15:39-  19.8 6430mECoRBhubaneshwar, Odisha
1.4BBSNBhubaneswar New  15:40-15:40-  110.6 6432mECoRBhubaneshwar, Odisha
1.5BRAGBarangX  15:45-15:45-  115.7 6427mECoRDist - Cuttack, Odisha
1.6GBKGopalpur Balkuda  15:52-15:52-  123.5 6428mECoRGopalpur, Odisha
1.7KTJIKatha Jori  15:54-15:54-  126.2 6428mECoRCuttack, Odisha
2CTCCuttack Junction (5)  15:55 15:56-16:00 16:01-5m1127.97428mECoRCuttack, Odisha
2.1KNPRKendrapara Road  16:04-16:04-  132.0 7429mECoRKendrapara Road, Odisha
2.2NRGNergundi  16:10-16:10-  138.5 7426mECoRCuttack District, Odisha
2.3KISKapilas Road Junction  16:13-16:13-  142.7 7424mECoRTangi, Odisha
2.4SJDRSri Jhadeshwar RoadX  16:18-16:18-  148.5 7430mECoRNational Highway 5, Odisha
2.5BYYByree  16:21-16:21-  152.5 7433mECoRBairi, Odisha
2.6BRTGBarithengarh  16:24-16:24-  157.0 7425mECoRCuttack, Odisha
2.7DNMDhanmandal (3)  16:30-16:30-  163.3 7438mECoRDhanmanda, Odisha
2.8HDSHaridaspur  16:34-16:34-  168.5 7430mECoRDhanmandal, Odisha
2.9NGMPNew Garh MadhopurXO  16:42-16:42-  178.3 7428mECoRGarh Madhopur, Odisha
2.10JENJenapur  16:46-16:46-  184.2 7423mECoRNational Highway 200, Odisha
2.11BRMIBrahamani PhX  16:48-16:48-  186.5 7422mECoRNational Highway 200, Odisha
2.12JKPRJakhapura  16:53-16:53-  192.1 7419mECoRJajpur, Odisha
3JJKRJajpur Keonjhar Road (4)XO  16:54 16:59-16:56 17:00-2 1m--199.93836mECoRJajpur, Odisha
3.1KRIHKorai Halt  17:08-17:08-  1104.8 3830mECoRJajapur, Odisha
3.2BTVBaitarani Road  17:18-17:18-  1111.7 3827mECoRBaitarani, Odisha
3.3DLPTDulakhapatnaX  17:27-17:27-  1117.2 3827mECoRBandalo, Odisha
3.4MZZManjuri Road  17:33-17:33-  1121.2 3828mECoRBhadrak, Odisha
3.5KEDKenduapada  17:44-17:44-  1128.1 3823mECoRBhadrak, Odisha
3.6KPLDKapali RoadX  17:51-17:51-  1132.8 3820mECoRKantia, Odisha
3.7BUDRBaudpur  17:58-17:58-  1137.1 3821mECoRBhadrak, Odisha
4BHCBhadrak (4)  18:08-18:10-2m--1143.57923mECoRBhadrak, Odisha
4.1RNTLRanitalX  18:16-18:16-  1151.3 7922mSERBhadrak, Odisha
4.2MKOMarkona  18:21-18:21-  1157.8 7918mSERMarkuna, Odisha
4.3SZZSabira  18:25-18:25-  1163.8 7914mSERNational Highway 5, Odisha
5SOROSoro•X  18:32-18:33-1m--1172.57414mSERSoro, Odisha
5.1BNBRBahanaga Bazar  18:40-18:40-  1181.1 7419mSERBalasore Distt., Odisha
5.2PNPNPanpana  18:44-18:44-  1185.6 7415mSERKhantaparha, Odisha
5.3KHFKhantaparaX  18:48-18:48-  1190.6 7415mSERKhantaparha, Odisha
5.4NGRDNilgiri Road  18:51-18:51-  1195.3 7414mSERBaleswar, Odisha
6BLSBalasore (4)X  19:00-19:05-5m31206.07919mSERBalasore, Odisha
6.1TKPLTikirapal Halt  19:09-19:09-  1210.9 798mSERBaleswar, Odisha
6.2HIPHaldipada (4)X  19:14-19:14-  1217.7 799mSERHaldipada, Odisha
6.3ROPRupsa Junction (5)  19:19-19:19-  1223.8 7913mSERRupsa, Odisha
6.4NMBRN Mayurbhanj Road (3)  19:23-19:23-  1229.2 7911mSERBaleswar, Odisha
6.5BTSBasta (3)  19:26-19:26-  1234.0 7916mSERBasta, Odisha
6.6ARDAmarda Road (4)  19:30-19:30-  1239.3 7911mSERAmarda Road, Odisha
6.7RGTRajghat Halt (2)O  19:35-19:35-  1245.8 7917mSERRajghat, Odisha
7JERJaleswar (4)X  19:41-19:42-1m--1253.47313mSERJaleswar, Odisha
7.1LXDLakshannath Road (4)  19:47-19:47-  1259.6 7317mSERDist. Balasore, Odisha
7.2AGVAngua (3)  19:52-19:52-  1265.5 7317mSERWest Medinipore, West Bengal
7.3DNTDantan  19:56-19:56-  1270.0 7319mSERNational Highway 60, West Bengal
7.4NSINekurseni (3)  20:03-20:03-  1278.5 7324mSERNikursini, West Bengal
7.5BLDABelda (4)  20:09-20:09-  1286.5 7324mSERDistrict Paschim Medinipur, West Bengal
7.6CNTContai RoadX  20:09-20:09-  1286.6 7324mSERDist - Pashim medinipur, West Bengal
7.7VKDBakhrabad (3)X  20:14-20:14-  1292.5 7315mSERMedinipur, West Bengal
7.8NYANarayangarh (4)X  20:19-20:19-  1299.0 7324mSERKasba Narayangarh, West Bengal
7.9BPEBenapur  20:28-20:28-  1310.1 7335mSERNational Highway 60, West Bengal
8HIJHijli (2)  20:35-20:37-2m--1318.26348mSERdist - paschim medinipur, West Bengal
8.1NPTYNimpura Through Yardp20:42-20:42-  1323.8 6359mSERDist: West Medinipur, West Bengal
8.2KKQKalaikunda (4)  20:45-20:45-  1326.2 6362mSERKharagpur, West Bengal
8.3KSOKhemasuli  20:52-20:52-  1333.6 6360mSERKharagpur, West Bengal
8.4SUASardiha (4)  20:59-20:59-  1341.5 6373mSERSardiha Railway Station, West Bengal
8.5BNBBanstola (2)  21:06-21:06-  1348.3 6374mSERDherua, West Bengal
8.6JGMJhargram (4)  21:14-21:14-  1356.8 6382mSERJhargram, West Bengal
8.7KATBKhatkuraX  21:22-21:22-  1365.2 6379mSERState Highway 4, West Bengal
8.8GIIGidni (3)  21:29-21:29-  1372.4 6383mSERState Highway 4, West Bengal
8.9KNMKanimahuli (2)X  21:36-21:36-  1380.0 63110mSERState Highway 4, West Bengal
8.10CKUChakulia (4)  21:42-21:42-  1386.0 63126mSERChakulia, Jharkhand
8.11KKPRKokpara  21:49-21:49-  1394.2 63102mSEREast Singhbhum District, Jharkhand
8.12DVMDhalbhumgarh (4)  21:59-21:59-  1404.5 63115mSERDhalbhumgarh, Jharkhand
8.13GTSGhatsila (3)  22:11-22:11-  1416.5 63103mSEREast Singhbhum, Jharkhand
8.14GUDGaludih (4)  22:20-22:20-  1426.6 63120mSEREast Singhbhum, Jharkhand
8.15RHERakha Mines (2)  22:27-22:27-  1433.4 63118mSEREast Singhbhum, Jharkhand
8.16ASBAsanboni  22:33-22:33-  1440.3 63129mSEREast Singhbhum, Jharkhand
8.17GVDPGovindpur PH (2)  22:38-22:38-  1445.8 63159mSERJamshedpur, Jharkhand
8.18SLJRSalga Jhari  22:43-22:43-  1450.6 63179mSERJamshedpur, Jharkhand
9TATATatanagar Junction (5)  22:45-22:55-10m31452.761164mSER91-657-2423026, Jharkhand
9.1ADTPAdityapur (3)X  23:00-23:00-  1457.4 61152mSERJamshedpur, Jharkhand
9.2GMHGamharia (3)  23:05-23:05-  1463.4 61165mSERJamshedpur, Jharkhand
9.3BIRPBirarajpur (2)  23:11-23:11-  1468.8 61200mSERJamshedpur, Jharkhand
9.4KNDKandra (4)  23:15-23:15-  1473.4 61176mSERJamshedpur, Jharkhand
9.5KZUKunki (2)  23:18-23:18-  1476.6 61163mSERNational Highway 33, Jharkhand
9.6MIKManikul (2)  23:23-23:23-  1481.6 61170mSERJharkhand 832401, Jharkhand
9.7CNIChandil Junction (4)  23:29-23:29-  1487.6 61178mSERChandil, Jharkhand
9.8NIMNimdih  23:38-23:38-  1496.2 61209mSERNational Highway 32, Jharkhand
9.9BRMDBiramdih  23:46-23:46-  1504.3 61263mSERNational Highway 32, West Bengal
9.10BBMBarabhum  23:51-23:51-  1509.8 61229mSERBalarampur, West Bengal
9.11URMAUrma  23:59-23:59-  1518.5 61266mSERNational Highway 32, West Bengal
9.12KTDKantadih  00:07-00:07-  2526.6 61274mSERNational Highway 32, West Bengal
9.13TAOTamna  00:15-00:15-  2534.5 61236mSERNational Highway 32, West Bengal
9.14PRRPurulia Junction (4)p00:22-00:22-  2541.6 61240mSERPurulia, West Bengal
9.15CHRAChharra (2)  00:29-00:29-  2548.8 61255mSERPurulia, West Bengal
9.16KSUKustaur (2)  00:39-00:39-  2558.8 61235mSERPurulia, West Bengal
9.17BGABagalia (2)  00:42-00:42-  2561.7 61218mSERPurulia, West Bengal
9.18ANRAnara (2)  00:47-00:47-  2567.3 61216mSERdist - Purulia, West Bengal
9.19RUIRukni  00:56-00:56-  2576.2 61192mSERPurulia, West Bengal
9.20SNTDSantaldih (2)  01:04-01:04-  2584.5 61156mSERPurulia, West Bengal
9.21BJEBhojudih Junctionp01:10-01:10-  2590.9 61157mSERdist - Bokaro, Jharkhand
9.22SBWShewbabudih (2)  01:16-01:16-  2597.0 61158mSERSbewbabudi, Jharkhand
9.23TLETalgaria  01:22-01:22-  2603.1 61188mSERNational Highway 32, Jharkhand
9.24MHQMahuda Junctionp01:33-01:33-  2613.8 61203mSERNational Highway 32, Jharkhand
9.25KHRIKharkhari  01:38-01:38-  2619.2 61227mSERNawagarh, Jharkhand
9.26KNFKhanudih  01:42-01:42-  2623.4 61243mSERBokaro, Jharkhand
9.27KAROKhario P.H.  01:44-01:44-  2625.3 61252mSERMantand, Jharkhand
9.28GMONetaji SC Bose Gomoh Junction (6)T03:10 01:53-03:20 01:53-  2634.0 61239mECRGomoh, Jharkhand
9.29BLMEBholldih  01:57-01:57-  2638.9 61241mECRGomoh, Jharkhand
9.30NMGNimiaghatX  02:03-02:03-  2644.5 61268mECRNational Highway 2, Jharkhand
9.31PNMEParasnath (5)X  02:10-02:10-  2652.1 61282mECRGiridih 06532-233419, Jharkhand
9.32CEMEChegroX  02:23-02:23-  2665.1 61333mECRBeko, Jharkhand
9.33CDBChaudhribandh  02:27-02:27-  2669.4 61314mECRMaipatoli, Jharkhand
9.34UDLWAndal West Cabin  02:29-02:29-  2671.2 61323mERAndal, Jharkhand
9.35GRBHGarea Bihar  02:30-02:30-  2672.2 61315mECRSariya - Parsiya Rd, Jharkhand
9.36CCKChichaki  02:32-02:32-  2674.1 61308mECRNational Highway 2, Jharkhand
9.37HZDHazaribagh Road (4)X  02:37-02:37-  2679.2 61330mECRHazaribagh, Jharkhand
9.38KSHRKeshwari  02:42-02:42-  2684.8 61313mECRMandramo, Jharkhand
9.39CBHChaube  02:47-02:47-  2689.7 61325mECRParsabad, Jharkhand
9.40DSMEDasaraX  02:52-02:52-  2694.6 61342mECRSariya - Parsiya Road, Jharkhand
9.41PSBParsabad (3)  02:58-02:58-  2701.1 61346mECRNational Highway 2, Jharkhand
9.42YDDYadudih  03:04-03:04-  2706.6 61352mECRNational Highway 2, Jharkhand
9.43SMNDSarmatanr  03:08-03:08-  2710.5 61351mECRKoderma, Jharkhand
9.44HREHirodihXO  03:15-03:15-  2718.3 61371mECRJhumri Telaiya, Jharkhand
9.45LRBLarabad  03:20-03:20-  2722.9 61393mECRJhumri Telaiya, Jharkhand
9.46KQRKoderma Junction (7)O  03:24-03:24-  2727.5 61399mECR06534-222410 Koderma, Jharkhand
9.47GJDGujhandi  03:34-03:34-  2737.4 61386mECRNational Highway 31, Jharkhand
9.48LBZLalbag Block Hut  03:36-03:36-  2739.5 61389mECRState Highway 70, Bihar
9.49DLWDilwaO  03:41-03:41-  2744.1 61346mECRNational Highway 31, Bihar
9.50NGYNath Ganj  03:47-03:47-  2750.2 61284mECRMurli, Bihar
9.51BSCPBaskatwa B. H.XO  03:48-03:48-  2751.7 61273mECRMurli, Bihar
9.52YGMYadugram Block Hut  03:53-03:53-  2756.5 61210mECRYadugram Block Hut, Jharkhand
9.53GAPGurpa  03:56-03:56-  2759.8 61192mECRLodhwe, Bihar
9.54PRPPaharpurXO  04:07-04:07-  2771.5 61150mECRGaya, Bihar
9.55BNSLBansinala HaltX  04:14-04:14-  2777.7 61135mECRBansinala, Bihar
9.56TKNTankuppaO  04:19-04:19-  2783.8 61127mECRState Highway 70, Bihar
9.57BNFBandhuaX  04:27-04:27-  2791.3 61124mECRState Highway 70, Bihar
9.58MPOManpur Junction (4)  04:34-04:34-  2798.5 61113mECRGaya, Bihar
9.59SICYShaheed Ishwar Chowdhary Halt (2)  04:36-04:36-  2800.2 61112mECRManpur, Bihar
9.60GAYAGaya Junction (9)  04:39-04:39-  2803.8 61117mECR0631-2220283, Bihar
9.61WCBGaya West CabinX  04:42-04:42-  2807.1 61111mECRGaya, Bihar
9.62KSTAKastha  04:47-04:47-  2812.3 61113mECRGaya, Bihar
9.63PRYParaiya  04:54-04:54-  2819.4 61111mECRparaiya station Rd, Bihar
9.64GRRUGuraru  05:00-05:00-  2825.3 61114mECRGuraru, Bihar
9.65IMGEIsmailpurX  05:07-05:07-  2832.2 61114mECRState Highway 69, Bihar
9.66RFJRafiGanj (4)X  05:16-05:16-  2841.4 61102mECRRafiganj, Bihar
9.67DORDDeo Road  05:23-05:23-  2848.5 61102mECRMaluk Bigha, Bihar
9.68JHNJakhimX  05:27-05:27-  2852.3 6193mECRbel Rd, Bihar
9.69BHKHBaghoi Kusa  05:33-05:33-  2858.8 6198mECRbel Rd, Bihar
9.70PESPhesarX  05:37-05:37-  2863.3 61104mECRpheshar, Bihar
9.71AUBRAnugraha Narayan Road (4)  05:46-05:46-  2872.3 61104mECR06186-285271, Bihar
9.72CPBHChiraila  05:51-05:51-  2877.3 61104mECRBarun, Bihar
9.73SEBSon Nagar Junction (4)  05:57-05:57-  2883.2 61110mECRBarun, Bihar
9.74ADSRADSR  06:02-06:02-  2888.0 61113mECRDehri, Bihar
9.75DOSDehri On Sone (6)  06:02-06:02-  2888.9 61114mECRRohtas(06184-253154), Bihar
9.76PHEPahaleja Halt  06:07-06:07-  2893.4 61112mECRPahaleja, Bihar
9.77KWDKarwandiaX  06:13-06:13-  2900.0 61113mECRKarwandiya, Bihar
9.78SSMSasaram Junction (4)X  06:20-06:20-  2906.5 61111mECR06184-222051, Bihar
9.79KMGEKumahu  06:28-06:28-  2914.4 61101mECRKamahu, Bihar
9.80SSGShiu Sagar Road  06:33-06:33-  2920.1 6199mECRShiu Sagar Rd, Bihar
9.81KVDKhurmabad Road  06:38-06:38-  2924.9 6193mECRKhurmabad, Bihar
9.82KTQKudra (2)  06:45-06:45-  2931.8 6192mECRKudra, Bihar
9.83PSEPusauli  06:53-06:53-  2940.8 6186mECRDistt: Rohtas, Bihar
9.84MTGEMuthaniX  07:01-07:01-  2948.7 6183mECRNational Highway 2, Bihar
9.85BBUBhabua Road (4)X  07:06-07:06-  2954.1 6180mECR06187-222222, Bihar
9.86DGODurgauti  07:15-07:15-  2963.1 6176mECRDistt Kaimur, Bihar
9.87DCXDhanaichha  07:20-07:20-  2968.5 6175mECRNational Highway 2, Bihar
9.88KMSKaramnasa  07:27-07:27-  2974.7 6178mECRNational Highway 2, Uttar Pradesh
9.89SYJSaidraja  07:35-07:35-  2982.9 6180mECRSaiyedraja, Uttar Pradesh
9.90CDMRChandauli Majhwar  07:43-07:43-  2991.3 6180mECRNational Highway 2, Uttar Pradesh
9.91GAQGanj Khawaja  07:51-07:51-  2999.8 6179mECRChandauli Mjhwr, Uttar Pradesh
9.92FOCMFlyover Cabin Mughal SaraiO  07:54-07:54-  21002.2 6180mECRChandauli Mjhwr, Uttar Pradesh
9.93MGSMughal Sarai Junction (8)T08:00-08:20 08:00-  21008.7 6183mECRMughalsarai 232101, Uttar Pradesh
9.94NEWCNew West Cabin  08:01-08:01-  21009.9 6180mECRMughal Sarai, Uttar Pradesh
9.95JEPJeonathpur (2)  08:08-08:08-  21016.5 6183mNCRVaranasi, Uttar Pradesh
9.96ARWAhraura Road (4)X  08:13-08:13-  21022.5 6185mNCRDist. Mirzapur - 231305, Uttar Pradesh
9.97KYTKailahat (4)X  08:22-08:22-  21030.9 6183mNCRKailahat, Uttar Pradesh
9.98CARChunar Junction (5)  08:31-08:31-  21040.6 6185mNCRChunar Junction, Uttar Pradesh
9.99DAPDagmagpur  08:38-08:38-  21048.0 6188mNCRDagmagpur, Uttar Pradesh
9.100PREPaharaX  08:46-08:46-  21056.1 6187mNCRNational Highway 7, Uttar Pradesh
9.101JHGJhingura  08:54-08:54-  21063.6 6185mNCRNational Highway 7, Uttar Pradesh
9.102MZPMirzapur (3)  09:02-09:02-  21071.9 6188mNCRMirzapur, Uttar Pradesh
9.103BDLVindhyachal (3)X  09:09-09:09-  21079.2 6188mNCRMirzapur, Uttar Pradesh
9.104BEOBirohe  09:14-09:14-  21083.9 6183mNCRNational Highway 76, Uttar Pradesh
9.105GAEGaipura (4)  09:21-09:21-  21091.5 6186mNCRGaipura, Uttar Pradesh
9.106JIAJigna (1)XO  09:28-09:28-  21098.4 6194mNCRNational Highway 76, Uttar Pradesh
9.107MNFManda RoadX  09:36-09:36-  21106.7 6193mNCRNH 76, Uttar Pradesh
9.108UNDUnchdihX  09:44-09:44-  21114.8 6194mNCRUnchdih, Uttar Pradesh
9.109MJAMeja Road (4)  09:52-09:52-  21122.9 6194mNCRDistrict Allahabad, Uttar Pradesh
9.110BEPBheerpur  10:03-10:03-  21134.2 6194mNCRNH 76, Uttar Pradesh
9.111KCNKarchana  10:12-10:12-  21143.3 6194mNCRKarchana, Uttar Pradesh
9.112COIChheoki Junction (3)  10:21-10:21-  21152.3 6196mNCRDist.-Allahabad, Uttar Pradesh
9.113NYNNaini Junction (4)O  10:22-10:22-  21153.9 6198mNCRAllahabad, Uttar Pradesh
9.114ALDAllahabad Junction (10)p10:30-10:30-  21161.4 61100mNCRAllahabad 211003, Uttar Pradesh
9.115SFGSubedarGanj (3)  10:33-10:33-  21165.1 61100mNCRAllahabad, Uttar Pradesh
9.116BMUBamhrauli  10:38-10:38-  21170.2 61102mNCRAllahabad, Uttar Pradesh
9.117MREManauri  10:46-10:46-  21178.6 61105mNCRSabderganj-Fatehpur Rd, Uttar Pradesh
9.118SYWNSaiyid Sarawan  10:51-10:51-  21183.2 61106mNCR212203 ?, Uttar Pradesh
9.119MNJManoharGanj  10:58-10:58-  21190.6 61104mNCRNational Highway 2, Uttar Pradesh
9.120BREBharwari  11:06-11:06-  21198.5 61108mNCRBharwari, Uttar Pradesh
9.121BDNPBidanpur  11:10-11:10-  21202.5 61106mNCRBidanpur, Uttar Pradesh
9.122SJTShujaatpur  11:16-11:16-  21208.8 61107mNCRNational Highway 2, Uttar Pradesh
9.123SROSirathu (2)  11:26-11:26-  21218.6 61109mNCRSirathu, Uttar Pradesh
9.124ASCEAthsarai  11:32-11:32-  21225.0 61107mNCRAthsarai, Uttar Pradesh
9.125KUWKanwar  11:37-11:37-  21230.5 61110mNCRNational Highway 2, Uttar Pradesh
9.126KTCEKatoghan  11:43-11:43-  21236.5 61109mNCRNational Highway 2, Uttar Pradesh
9.127KGAKhaga (3)  11:50-11:50-  21243.4 61114mNCRFatehpur, Uttar Pradesh
9.128SNIESath Naraini  11:57-11:57-  21250.9 61114mNCRNational Highway 2, Uttar Pradesh
9.129RUBRasulabad  12:04-12:04-  21258.0 61118mNCRRasulabad, Uttar Pradesh
9.130FYZFaizullapur  12:13-12:13-  21267.1 61115mNCRFaizullapur, Uttar Pradesh
9.131RAMARamvaX  12:18-12:18-  21272.2 61116mNCRforcing detours between Kanpur and Varanasi, Uttar Pradesh
9.132FTPFatehpur (3)  12:24-12:24-  21278.1 61120mNCRFatehpur, Uttar Pradesh
9.133KKSKurasti Kalan  12:31-12:31-  21285.1 61119mNCRJoniha Rd, Uttar Pradesh
9.134MWHMalwan (2)  12:40-12:40-  21294.2 61122mNCRFatehpur, Uttar Pradesh
9.135KSQKanspur Gugauli  12:47-12:47-  21301.4 61124mNCRNational Highway 2, Uttar Pradesh
9.136BKOBindki Road  12:55-12:55-  21309.4 61124mNCRFatehpur, Uttar Pradesh
9.137AUNGAungX  13:00-13:00-  21315.3 61123mNCRNational Highway 2, Uttar Pradesh
9.138KBNKarbigwanX  13:07-13:07-  21321.7 61121mNCRFatehpur, Uttar Pradesh
9.139PMPRPrempur  13:12-13:12-  21327.0 61125mNCRNational Highway 2, Uttar Pradesh
9.140SSLSirsaul (1)X  13:18-13:18-  21333.2 61125mNCRKANPUR-209 402, Uttar Pradesh
9.141RXMRooma (2)  13:24-13:24-  21339.8 61125mNCRKANPUR-208 008, Uttar Pradesh
9.142CHKChakeri (2)X  13:29-13:29-  21344.3 61126mNCRKANPUR-208 008, Uttar Pradesh
9.143CNBIChandari (2)  13:36-13:36-  21351.2 61125mNCRKanpur Cantt, Uttar Pradesh
10CNBKanpur Central (10)X  13:40-13:55-15m--21355.763128mNCRKANPUR-208 001, Uttar Pradesh
10.1GMCKanpur Goods Marshalling Yard  13:56-13:56-  21356.9 63128mNCRKanpur-208 014, Uttar Pradesh
10.2CNJOJuhi Outer Cabin  13:58-13:58-  21358.6 63131mNCRKanpur, Uttar Pradesh
10.3CPNLKanpur C Panel  13:58-13:58-  21359.1 63127mNCRKanpur, Uttar Pradesh
10.4GOYGovindpuri Junction (2)  13:59-13:59-  21359.6 63129mNCRKANPUR-208 006, Uttar Pradesh
10.5PNKPanki (3)X  14:06-14:06-  21367.2 63129mNCRKANPUR-208 020, Uttar Pradesh
10.6BPUBhaupurX  14:17-14:17-  21378.4 63133mNCRKANPUR Dehat-209 307, Uttar Pradesh
10.7MTOMaitha  14:26-14:26-  21388.3 63235mNCRMDR 78C, Uttar Pradesh
10.8RMWRoshan Mau  14:30-14:30-  21392.4 63135mNCRRoshan Mau, Uttar Pradesh
10.9RURARura (4)  14:37-14:37-  21400.1 63137mNCRJhinjhak, Uttar Pradesh
10.10AAPAmbiapur  14:46-14:46-  21408.8 63140mNCRJhinjhak, Uttar Pradesh
10.11JJKJhinjhak (3)  14:55-14:55-  21419.1 63140mNCRAuraiya, Uttar Pradesh
10.12PJYPara Jani Halt (1)  15:01-15:01-  21424.9 63139mNCRPara Jani, Uttar Pradesh
10.13KNSKanchausi (2)  15:06-15:06-  21430.0 63143mNCRState Highway 21, Uttar Pradesh
10.14PHDPhaphund (4)  15:14-15:14-  21438.9 63146mNCRdist. Auraiya, Uttar Pradesh
10.15PATAPata (3)  15:22-15:22-  21447.3 63143mNCRPhaphund, Uttar Pradesh
10.16ULDAchalda (3)  15:30-15:30-  21455.7 63147mNCRDist. Auraiya(05688-1072), Uttar Pradesh
10.17GHSRGhasara Halt (1)  15:35-15:35-  21461.1 63146mNCRPhaphund, Uttar Pradesh
10.18SHWSamhon (2)O  15:39-15:39-  21464.8 63144mNCRSamahon, Uttar Pradesh
10.19BNTBharthana (3)X  15:49-15:49-  21475.2 63147mNCRBharthana, Uttar Pradesh
10.20EKLEkdil (2)O  15:59-15:59-  21485.4 63150mNCRSarai Ikdil, Uttar Pradesh
10.21ETWEtawah (5)X  16:08-16:08-  21495.1 63154mNCRDistt. Etawah, Uttar Pradesh
10.22SBSarai Bhopat (2)  16:16-16:16-  21503.4 63151mNCREtawah(05688-1072), Uttar Pradesh
10.23JGRJaswantnagar (2)  16:23-16:23-  21511.1 63154mNCRJaswantnagar, Uttar Pradesh
10.24BBLBalrai (3)X  16:31-16:31-  21519.8 63157mNCRBalrai, Uttar Pradesh
10.25BDNBhadan (2)X  16:42-16:42-  21530.5 63160mNCRFirozabad, Uttar Pradesh
10.26KAAKaurara (3)X  16:50-16:50-  21539.6 63160mNCRFirozabad Distt, Uttar Pradesh
10.27SKBShikohabad Junction (4)  17:01-17:01-  21550.5 63166mNCRDistrict Firozabad, Uttar Pradesh
10.28MNRMakkhanpur (2)X  17:10-17:10-  21560.4 63166mNCRNational Highway 2, Uttar Pradesh
10.29FZDFirozabad (4)X  17:20-17:20-  21570.4 63164mNCRFirozabad, Uttar Pradesh
10.30HNGHirangaon (2)  17:27-17:27-  21578.2 63166mNCRNational Highway 2, Uttar Pradesh
10.31TDLTundla Junction (5)O  17:35-17:35-  21586.9 63167mNCRDistt.Firozabad, Uttar Pradesh
10.32WSCShivarampurX  17:39-17:39-  21590.4 63168mNCRShivarampur, Uttar Pradesh
10.33MTIMitawali (1)X  17:42-17:42-  21593.8 63169mNCRMitawali, Uttar Pradesh
10.34BRNBarhan Junction  17:49-17:49-  21601.6 63173mNCRJN Point-Tundle/Aligarh/Etah, Uttar Pradesh
10.35CMRChamrola (1)X  17:56-17:56-  21608.4 63174mNCRMDR 106W, Uttar Pradesh
10.36JLSJalesar Road (1)X  18:02-18:02-  21614.8 63172mNCRMDR 106W, Uttar Pradesh
10.37PORAPora (2)X  18:11-18:11-  21624.5 63179mNCRHathras, Uttar Pradesh
10.38HRSHathras Junction (3)X  18:21-18:21-  21634.9 63183mNCRMahamaya Nagar(05722-242803), Uttar Pradesh
10.39SNSSasni (3)X  18:30-18:30-  21643.8 63185mNCRSasni, Uttar Pradesh
10.40MXKMandrak (2)X  18:37-18:37-  21651.2 63190mNCRNational Highway 93, Uttar Pradesh
10.41DAQDaud Khan (3)X  18:43-18:43-  21658.0 63189mNCRNational Highway 91, Uttar Pradesh
10.42ALJNAligarh Junction (4)  18:50-18:50-  21665.1 63192mNCRAligarh, Uttar Pradesh
10.43MWUEMahrawal (2)  18:56-18:56-  21671.4 63189mNCRNational Highway 91, Uttar Pradesh
10.44KLAKulwa (2)X  19:01-19:01-  21677.0 63190mNCRAligarh, Uttar Pradesh
10.45SOMSomna (2)  19:11-19:11-  21687.2 63195mNCRNational Highway 91, Uttar Pradesh
10.46DARDanwar (2)  19:21-19:21-  21697.4 63198mNCRDanwar, Uttar Pradesh
10.47KAMPKamalpur (2)  19:26-19:26-  21703.0 63195mNCRKamalpur, Uttar Pradesh
10.48KRJKhurja Junction (4)  19:31-19:31-  21708.5 63199mNCRBulandshahr, Uttar Pradesh
10.49SKQSikandarpur (2)  19:37-19:37-  21714.2 63199mNCRMDR 70W, Uttar Pradesh
10.50GNRLGangraul (3)X  19:41-19:41-  21719.0 63200mNCRMDR 70W, Uttar Pradesh
10.51CHLChola (3)  19:45-19:45-  21723.1 63204mNCRTahsil Bulandshahar, Uttar Pradesh
10.52WIRWair  19:50-19:50-  21727.9 63203mNCRBhati Harish Singh, Uttar Pradesh
10.53WAIRWair (2)X  19:50-19:50-  21728.0 63203mNCRBulandshahr District, Uttar Pradesh
10.54DKDEDankaur (3)X  19:58-19:58-  21737.0 63209mNCRShyam Nagar Mandi, Uttar Pradesh
10.55AJRAjaibpur (2)  20:06-20:06-  21745.3 63207mNCRGreater Noida, Uttar Pradesh
10.56BRKYBoraki (2)X  20:11-20:11-  21750.2 63208mNCRNational Highway 91, Uttar Pradesh
10.57DERDadri (3)  20:15-20:15-  21754.4 63210mNCR203207, Uttar Pradesh
10.58MIUMaripat (2)  20:21-20:21-  21761.2 63213mNCRNational Highway 91, Uttar Pradesh
10.59CYZChipyana Buzurg (1)XO  20:28-20:28-  21767.7 63209mNRGhaziabad, Uttar Pradesh
10.60GZBGhaziabad Junction (6)XO  20:31-20:31-  21771.2 63217mNRGhaziabad, Uttar Pradesh
10.61SBBSahibabad Junction (5)XO  20:38-20:38-  21778.5 63209mNRGhaziabad, Uttar Pradesh
10.62DSBPDelhi Shahdara B PanelX  20:40-20:40-  21780.8 63206mNRGhaziabad, Uttar Pradesh
10.63CNJChander Nagar (2)  20:41-20:41-  21782.1 63206mNRSahibabad Industrial Area Site 4, Uttar Pradesh
10.64ANVTDelhi Anand Vihar Terminal (3)  20:43-20:43-  21784.2 63208mNRGhazipur Road, Delhi NCT
10.65ANVRAnand Vihar (2)X  20:43-20:43-  21784.3 63213mNRAnand Vihar, Delhi NCT
10.66MWCMandawali-Chander Vihar (2)  20:47-20:47-  21787.7 63206mNRDelhi-110092, Delhi NCT
10.67TKJTilak Bridge (4)X  20:53-20:53-  21794.0 63214mNRNew Delhi, Delhi NCT
10.68CSBShivaji Bridge (4)  20:54-20:54-  21795.4 63213mNRConnaught Place, Delhi NCT
11NDLSNew Delhi (16)  20:50 20:55--1421796.5-215mNRNew Delhi, Delhi NCT
Scroll to Top
Scroll to Bottom